NVSC

Details ICAO NVSC (SLH)
Name Vanua Lava
Region Vanuatu
Timezone Pacific/Efate (UTC+11.0)
Plans Departing 0
Arriving 1
Stats Elevation 40 ft / 12 m (AMSL)
Location -13.852722° 167.537246°
Runways 1
Magnetic Variation 10.644° E
Sunrise 2017-12-15 18:18:30 UTC / 2017-12-16 05:18:30 Local
Sunset 2017-12-16 07:14:48 UTC / 2017-12-16 18:14:48 Local
Advertisement - Login to hide

Runways

ID Width Length Bearing (true) Bearing (mag) Surface Threshold Offset Overrun Length
16 95 ft / 29 m 2,574 ft / 785 m 166.60° 155.96° Grass 0 ft / 0 m 0 ft / 0 m
34 95 ft / 29 m 2,574 ft / 785 m 346.60° 335.96° Grass 0 ft / 0 m 0 ft / 0 m

Map

Weather


0- 5 10 15 20 25 30 35+ Temperature / ° C

Clouds and Precipitation
Forecast for 2017-12-16 06:00 UTC. Updated 13 minutes ago

Ground ~20,000 ft ~40,000 ft Winds

METAR

NVSC 160300Z 00000KT 9999 BKN018 FEW025CB 29/28 Q1006 RMK RESH

TAF

Not found
Warning: Do not use this data for real-world aviation or navigation. No guarantee of current accuracy is given.